Azuryth — 5BCA4 — position and weather

sailwx.info

Track history (hours):
 
Tides and Currents Weather Stations Pressure Air Temp Water Temp Dewpoint Dewpoint Depression Visibility Wind Speed Wind Dir Waves Ship Positions

Azuryth

Last reported at 2017-Dec-18 11:00 UTC. Time now 2017-Dec-18 11:20 UTC.
Position N 58°41' E 010°44'.

Length 105 m; draft 5.1 m.

Type: Ship (hazmat cat C). MMSI: 212228000.

Date/timePositionNaut miles runAvg speedWind from/ knotsBaromVisibWave heightAir tempDewpointWater temp
2017-Dec-18 11:00N 58°41' E 010°44'510.1
2017-Dec-18 10:30N 58°45' E 010°42'510.4
2017-Dec-18 10:00N 58°51' E 010°40'511.0
2017-Dec-18 09:30N 58°56' E 010°37'611.4
2017-Dec-18 09:00N 59°01' E 010°35'511.0
2017-Dec-18 08:30N 59°07' E 010°32'510.0
2017-Dec-18 08:00N 59°10' E 010°25'1 1.4
2017-Dec-18 07:28N 59°10' E 010°23'0 0.0
2017-Dec-18 06:58N 59°10' E 010°23'0 0.0
2017-Dec-18 06:28N 59°10' E 010°23'0 0.0
2017-Dec-18 05:58N 59°10' E 010°23'0 0.0
2017-Dec-18 05:28N 59°10' E 010°23'0 0.0
2017-Dec-18 04:58N 59°10' E 010°23'0 0.0
2017-Dec-18 04:28N 59°10' E 010°23'0 0.0
2017-Dec-18 03:58N 59°10' E 010°23'0 0.0
2017-Dec-18 03:25N 59°10' E 010°23'0 0.0
2017-Dec-18 02:58N 59°10' E 010°23'0 0.0
2017-Dec-18 02:28N 59°10' E 010°23'0 0.0
2017-Dec-18 01:58N 59°10' E 010°23'0 0.0
2017-Dec-18 01:28N 59°10' E 010°23'0 0.0
2017-Dec-18 00:58N 59°10' E 010°23'0 0.0
2017-Dec-18 00:28N 59°10' E 010°23'0 0.0
2017-Dec-17 23:58N 59°10' E 010°23'0 0.0
2017-Dec-17 23:28N 59°10' E 010°23'0 0.0
2017-Dec-17 22:58N 59°10' E 010°23'0 0.0
2017-Dec-17 22:28N 59°10' E 010°23'0 0.0
2017-Dec-17 21:58N 59°10' E 010°23'0 0.0
2017-Dec-17 21:28N 59°10' E 010°23'0 0.0
2017-Dec-17 20:58N 59°10' E 010°23'0 0.0
2017-Dec-17 20:28N 59°10' E 010°23'0 0.0
2017-Dec-17 19:58N 59°10' E 010°23'0 0.0
2017-Dec-17 19:28N 59°10' E 010°23'0 0.0
2017-Dec-17 18:58N 59°10' E 010°23'0 0.0
2017-Dec-17 18:28N 59°10' E 010°23'0 0.0
2017-Dec-17 17:58N 59°10' E 010°23'0 0.0
2017-Dec-17 17:28N 59°10' E 010°23'0 0.0
2017-Dec-17 16:58N 59°10' E 010°23'0 0.0
2017-Dec-17 16:28N 59°10' E 010°23'0 0.0
2017-Dec-17 15:58N 59°10' E 010°23'0 0.0
2017-Dec-17 15:28N 59°10' E 010°23'0 0.0
2017-Dec-17 14:58N 59°10' E 010°23'0 0.0
2017-Dec-17 14:28N 59°10' E 010°23'0 0.0
2017-Dec-17 13:58N 59°10' E 010°23'0 0.0
2017-Dec-17 13:28N 59°10' E 010°23'0 0.0
2017-Dec-17 12:58N 59°10' E 010°23'0 0.8
2017-Dec-17 12:30N 59°10' E 010°24'3 6.6
2017-Dec-17 12:00N 59°08' E 010°29'611.4
2017-Dec-17 11:30N 59°03' E 010°34'611.7
2017-Dec-17 11:00N 58°58' E 010°30'713.3
2017-Dec-17 10:30N 58°53' E 010°22'713.3
2017-Dec-17 10:00N 58°48' E 010°14'713.2
2017-Dec-17 09:30N 58°43' E 010°05'713.3
2017-Dec-17 09:00N 58°38' E 009°57'1713.6
2017-Dec-17 07:46N 58°25' E 009°37'1313.7
2017-Dec-17 06:47N 58°14' E 009°21'413.7
2017-Dec-17 06:30N 58°11' E 009°16'713.6
2017-Dec-17 06:00N 58°06' E 009°07'713.6
2017-Dec-17 05:30N 58°01' E 008°60'713.5
2017-Dec-17 05:00N 57°55' E 008°52'3213.4
2017-Dec-17 02:36N 57°31' E 008°13'113.1
2017-Dec-17 02:30N 57°30' E 008°11'712.7
2017-Dec-17 01:59N 57°25' E 008°03'612.8
2017-Dec-17 01:30N 57°20' E 007°55'612.5
2017-Dec-17 01:00N 57°15' E 007°48'612.6
2017-Dec-17 00:29N 57°10' E 007°41'612.6
2017-Dec-17 00:00N 57°05' E 007°37'612.4
2017-Dec-16 23:30N 56°59' E 007°32'612.2
2017-Dec-16 22:59N 56°53' E 007°28'612.0
2017-Dec-16 22:30N 56°48' E 007°22'612.1
2017-Dec-16 21:59N 56°43' E 007°17'611.1
2017-Dec-16 21:29N 56°37' E 007°13'510.7
2017-Dec-16 21:00N 56°33' E 007°09'611.0
2017-Dec-16 20:30N 56°28' E 007°05'510.8
2017-Dec-16 20:00N 56°23' E 007°01'510.3
2017-Dec-16 19:29N 56°18' E 006°57'5 9.8
2017-Dec-16 19:00N 56°14' E 006°53'5 9.7
2017-Dec-16 18:28N 56°09' E 006°49'5 9.8
2017-Dec-16 17:59N 56°05' E 006°46'5 9.9
2017-Dec-16 17:30N 56°00' E 006°42'11 9.9
2017-Dec-16 16:24N 55°50' E 006°34'148 9.9
2017-Dec-16 01:29N 53°36' E 004°50'610.9
2017-Dec-16 00:59N 53°30' E 004°47'5 9.7
2017-Dec-16 00:30N 53°26' E 004°43'510.8
2017-Dec-16 00:00N 53°21' E 004°39'611.1
2017-Dec-15 23:28N 53°16' E 004°36'610.9
2017-Dec-15 22:53N 53°10' E 004°31'411.2
2017-Dec-15 22:30N 53°06' E 004°28'611.3
2017-Dec-15 22:00N 53°01' E 004°23'611.6
2017-Dec-15 21:30N 52°56' E 004°18'611.5
2017-Dec-15 21:00N 52°51' E 004°14'611.5
2017-Dec-15 20:30N 52°46' E 004°09'611.6
2017-Dec-15 20:00N 52°41' E 004°04'611.9
2017-Dec-15 19:30N 52°37' E 003°58'611.8
2017-Dec-15 19:00N 52°31' E 003°55'611.7
2017-Dec-15 18:30N 52°25' E 003°52'611.5
2017-Dec-15 18:00N 52°20' E 003°51'611.9
2017-Dec-15 17:30N 52°14' E 003°52'612.4
2017-Dec-15 17:00N 52°08' E 003°54'611.7
2017-Dec-15 16:30N 52°02' E 003°56'4 8.8
2017-Dec-15 16:00N 51°60' E 004°02'612.1
2017-Dec-15 15:30N 51°57' E 004°11'611.5
2017-Dec-15 15:00N 51°54' E 004°18'1 1.5
2017-Dec-15 14:28N 51°53' E 004°18'0 0.0
2017-Dec-15 13:55N 51°53' E 004°18'0 0.0
2017-Dec-15 13:25N 51°53' E 004°18'0 0.0
2017-Dec-15 12:58N 51°53' E 004°18'0 0.0
2017-Dec-15 12:28N 51°53' E 004°18'0 0.0
2017-Dec-15 11:55N 51°53' E 004°18'0 0.0
2017-Dec-15 11:28N 51°53' E 004°18'0 0.0
2017-Dec-15 10:55N 51°53' E 004°18'0 0.0
2017-Dec-15 10:25N 51°53' E 004°18'0 0.0
2017-Dec-15 09:55N 51°53' E 004°18'0 0.0
2017-Dec-15 09:28N 51°53' E 004°18'0 0.0
2017-Dec-15 08:55N 51°53' E 004°18'0 0.0
2017-Dec-15 08:28N 51°53' E 004°18'0 0.0
2017-Dec-15 07:55N 51°53' E 004°18'0 0.0
2017-Dec-15 07:25N 51°53' E 004°18'0 0.0
2017-Dec-15 06:55N 51°53' E 004°18'0 0.0
2017-Dec-15 06:25N 51°53' E 004°18'0 0.0
2017-Dec-15 05:58N 51°53' E 004°18'0 0.0
2017-Dec-15 05:28N 51°53' E 004°18'0 0.0
2017-Dec-15 04:58N 51°53' E 004°18'0 0.0
2017-Dec-15 04:28N 51°53' E 004°18'0 0.0
2017-Dec-15 03:55N 51°53' E 004°18'0 0.0
2017-Dec-15 02:25N 51°53' E 004°18'0 0.0
2017-Dec-15 00:58N 51°53' E 004°18'0 0.0
2017-Dec-15 00:28N 51°53' E 004°18'0 0.0
2017-Dec-14 18:25N 51°53' E 004°18'0 0.0
2017-Dec-14 17:55N 51°53' E 004°18'0 0.0
2017-Dec-14 17:28N 51°53' E 004°18'0 0.0
2017-Dec-14 16:59N 51°53' E 004°18'1 1.7
2017-Dec-14 16:30N 51°53' E 004°19'4 8.4
2017-Dec-14 16:00N 51°51' E 004°24'10 9.6
2017-Dec-14 15:00N 51°47' E 004°38'0 0.0
2017-Dec-14 14:30N 51°47' E 004°38'0 0.0
2017-Dec-14 14:00N 51°47' E 004°38'0 0.0
2017-Dec-14 13:30N 51°47' E 004°38'0 0.0
2017-Dec-14 13:00N 51°47' E 004°38'0 0.0
2017-Dec-14 12:30N 51°47' E 004°38'0 0.0
2017-Dec-14 12:00N 51°47' E 004°38'0 0.0
2017-Dec-14 11:30N 51°47' E 004°38'0 0.0
2017-Dec-14 10:57N 51°47' E 004°38'0 0.0
2017-Dec-14 10:30N 51°47' E 004°38'0 0.0
2017-Dec-14 10:00N 51°47' E 004°38'0 0.0
2017-Dec-14 09:30N 51°47' E 004°38'0 0.0
2017-Dec-14 08:57N 51°47' E 004°38'0 0.0
2017-Dec-14 08:30N 51°47' E 004°38'0 0.0
2017-Dec-14 08:00N 51°47' E 004°38'0 0.0
2017-Dec-14 07:30N 51°47' E 004°38'0 0.0
2017-Dec-14 07:00N 51°47' E 004°38'0 0.0
2017-Dec-14 06:30N 51°47' E 004°38'0 0.0
2017-Dec-14 06:00N 51°47' E 004°38'0 0.0
2017-Dec-14 05:30N 51°47' E 004°38'0 0.0
2017-Dec-14 05:00N 51°47' E 004°38'0 0.0
2017-Dec-14 04:30N 51°47' E 004°38'0 0.0
2017-Dec-14 03:57N 51°47' E 004°38'0 0.0
2017-Dec-14 03:18N 51°47' E 004°38'0 0.0
2017-Dec-14 03:00N 51°47' E 004°38'0 0.0
2017-Dec-14 02:30N 51°47' E 004°38'0 0.0
2017-Dec-14 02:00N 51°47' E 004°38'0 0.0
2017-Dec-14 01:30N 51°47' E 004°38'0 0.0
2017-Dec-14 01:00N 51°47' E 004°38'0 0.0
2017-Dec-14 00:30N 51°47' E 004°38'0 0.0
2017-Dec-14 00:00N 51°47' E 004°38'0 0.0
2017-Dec-13 23:30N 51°47' E 004°38'0 0.0
2017-Dec-13 23:00N 51°47' E 004°38'0 0.0
2017-Dec-13 22:27N 51°47' E 004°38'0 0.0
2017-Dec-13 22:00N 51°47' E 004°38'0 0.0
2017-Dec-13 21:30N 51°47' E 004°38'0 0.0
2017-Dec-13 20:54N 51°47' E 004°38'0 0.0
2017-Dec-13 20:30N 51°47' E 004°38'0 0.0
2017-Dec-13 20:00N 51°47' E 004°38'0 0.0
2017-Dec-13 19:21N 51°47' E 004°38'0 0.0
2017-Dec-13 18:51N 51°47' E 004°38'0 0.0
2017-Dec-13 18:30N 51°47' E 004°38'0 0.0
2017-Dec-13 18:00N 51°47' E 004°38'0 0.0
2017-Dec-13 17:30N 51°47' E 004°38'0 0.0
2017-Dec-13 17:00N 51°47' E 004°38'0 0.0
2017-Dec-13 16:30N 51°47' E 004°38'0 0.0
2017-Dec-13 16:00N 51°47' E 004°38'0 0.0
2017-Dec-13 15:30N 51°47' E 004°38'0 0.0
2017-Dec-13 15:00N 51°47' E 004°38'0 0.0
2017-Dec-13 14:30N 51°47' E 004°38'0 0.0
2017-Dec-13 14:00N 51°47' E 004°38'0 0.0
2017-Dec-13 13:30N 51°47' E 004°38'0 0.0
2017-Dec-13 12:57N 51°47' E 004°38'0 0.0
2017-Dec-13 12:24N 51°47' E 004°38'0 0.0
2017-Dec-13 12:00N 51°47' E 004°38'0 0.3
2017-Dec-13 11:30N 51°47' E 004°38'1 2.3
2017-Dec-13 11:00N 51°48' E 004°37'510.2
2017-Dec-13 10:30N 51°50' E 004°29'611.6
2017-Dec-13 10:00N 51°52' E 004°20'4 8.2
2017-Dec-13 09:30N 51°55' E 004°15'611.2
2017-Dec-13 09:00N 51°58' E 004°08'611.6
2017-Dec-13 08:30N 51°60' E 003°59'714.0
2017-Dec-13 08:00N 52°01' E 003°48'612.9
2017-Dec-13 07:30N 51°60' E 003°38'54 8.8
2017-Dec-13 01:21N 51°34' E 002°21'7 6.2
2017-Dec-13 00:14N 51°29' E 002°14'2 6.9
2017-Dec-12 23:57N 51°27' E 002°12'3 7.3
2017-Dec-12 23:30N 51°25' E 002°08'4 8.9
2017-Dec-12 23:00N 51°20' E 002°07'611.0
2017-Dec-12 22:30N 51°15' E 002°05'612.2
2017-Dec-12 22:00N 51°12' E 001°57'612.9
2017-Dec-12 21:30N 51°08' E 001°48'713.5
2017-Dec-12 21:00N 51°03' E 001°41'714.3
2017-Dec-12 20:30N 50°58' E 001°33'714.4
2017-Dec-12 20:00N 50°52' E 001°27'714.3
2017-Dec-12 19:30N 50°45' E 001°23'5212.9
2017-Dec-12 15:28N 50°21' E 000°11'614.0
2017-Dec-12 15:01N 50°19' E 000°01'713.8
2017-Dec-12 14:29N 50°17' W 000°10'713.6
2017-Dec-12 14:00N 50°15' W 000°20'713.4
2017-Dec-12 13:29N 50°13' W 000°30'10411.0
2017-Dec-12 04:02N 49°45' W 003°05'9410.7
2017-Dec-11 19:15N 48°57' W 005°09'2 8.9
2017-Dec-11 19:01N 48°56' W 005°12'5 8.6
2017-Dec-11 18:29N 48°53' W 005°18'3 7.4
2017-Dec-11 18:00N 48°51' W 005°22'4 7.3
2017-Dec-11 17:30N 48°49' W 005°27'4 6.3
2017-Dec-11 16:51N 48°47' W 005°32'2 5.1
2017-Dec-11 16:31N 48°46' W 005°34'23 3.4
2017-Dec-11 09:48N 48°23' W 005°38'2 3.9
2017-Dec-11 09:17N 48°22' W 005°37'1 4.2
2017-Dec-11 09:00N 48°20' W 005°37'3 4.8
2017-Dec-11 08:22N 48°18' W 005°36'2 5.0
2017-Dec-11 07:58N 48°16' W 005°34'2 4.8
2017-Dec-11 07:27N 48°13' W 005°33'3 5.3
2017-Dec-11 06:58N 48°11' W 005°32'3 5.7
2017-Dec-11 06:29N 48°08' W 005°31'4 6.5
2017-Dec-11 05:54N 48°05' W 005°29'3 7.9
2017-Dec-11 05:30N 48°02' W 005°28'4 8.3
2017-Dec-11 05:00N 47°58' W 005°26'5 8.4
2017-Dec-11 04:26N 47°53' W 005°23'3 7.9
2017-Dec-11 04:00N 47°50' W 005°21'4 7.6
2017-Dec-11 03:30N 47°47' W 005°17'3 6.9
2017-Dec-11 03:00N 47°45' W 005°14'3 5.9
2017-Dec-11 02:30N 47°43' W 005°11'3 6.0
2017-Dec-11 02:00N 47°41' W 005°07'3 5.6
2017-Dec-11 01:30N 47°40' W 005°03'3 5.5
2017-Dec-11 01:00N 47°39' W 004°60'3 6.4
2017-Dec-11 00:30N 47°37' W 004°56'4 8.2
2017-Dec-11 00:00N 47°34' W 004°51'5 9.3
2017-Dec-10 23:28N 47°31' W 004°46'5 9.6
2017-Dec-10 23:00N 47°28' W 004°41'73 6.2
2017-Dec-10 11:13N 46°58' W 003°03'1 4.6
2017-Dec-10 10:59N 46°58' W 003°02'3 4.8
2017-Dec-10 10:24N 46°58' W 002°58'10 3.8
2017-Dec-10 07:45N 46°59' W 002°43'1 2.8
2017-Dec-10 07:14N 46°60' W 002°41'1 3.9
2017-Dec-10 06:56N 47°00' W 002°40'2 4.4
2017-Dec-10 06:26N 47°01' W 002°37'7 6.8
2017-Dec-10 05:28N 47°04' W 002°28'6 8.3
2017-Dec-10 04:44N 47°08' W 002°21'1 5.4
2017-Dec-10 04:30N 47°09' W 002°20'510.9
2017-Dec-10 04:00N 47°13' W 002°16'612.1
2017-Dec-10 03:30N 47°17' W 002°09'2 3.4
2017-Dec-10 02:58N 47°18' W 002°07'0 0.0
2017-Dec-10 02:28N 47°18' W 002°07'0 0.0
2017-Dec-10 01:58N 47°18' W 002°07'0 0.0
2017-Dec-10 01:28N 47°18' W 002°07'0 0.0
2017-Dec-10 00:58N 47°18' W 002°07'0 0.0
2017-Dec-10 00:28N 47°18' W 002°07'0 0.0
2017-Dec-09 23:58N 47°18' W 002°07'0 0.0
2017-Dec-09 23:25N 47°18' W 002°07'0 0.0
2017-Dec-09 22:58N 47°18' W 002°07'0 0.0
2017-Dec-09 22:28N 47°18' W 002°07'0 0.0
2017-Dec-09 21:58N 47°18' W 002°07'0 0.0
2017-Dec-09 21:28N 47°18' W 002°07'0 0.0
2017-Dec-09 20:58N 47°18' W 002°07'0 0.0
2017-Dec-09 20:28N 47°18' W 002°07'0 0.0
2017-Dec-09 19:55N 47°18' W 002°07'0 0.0
2017-Dec-09 19:28N 47°18' W 002°07'0 0.0
2017-Dec-09 18:58N 47°18' W 002°07'0 0.0
2017-Dec-09 18:28N 47°18' W 002°07'0 0.0
2017-Dec-09 17:58N 47°18' W 002°07'0 0.0
2017-Dec-09 17:25N 47°18' W 002°07'0 0.0
2017-Dec-09 16:58N 47°18' W 002°07'0 0.0
2017-Dec-09 16:25N 47°18' W 002°07'0 0.0
2017-Dec-09 15:58N 47°18' W 002°07'0 0.0
2017-Dec-09 15:28N 47°18' W 002°07'0 0.0
2017-Dec-09 14:58N 47°18' W 002°07'0 0.0
2017-Dec-09 14:28N 47°18' W 002°07'0 0.0
2017-Dec-09 13:58N 47°18' W 002°07'0 0.0
2017-Dec-09 13:16N 47°18' W 002°07'0 0.0
2017-Dec-09 12:58N 47°18' W 002°07'0 0.0
2017-Dec-09 12:28N 47°18' W 002°07'0 0.0
2017-Dec-09 11:58N 47°18' W 002°07'0 0.0
2017-Dec-09 11:28N 47°18' W 002°07'0 0.0
2017-Dec-09 10:58N 47°18' W 002°07'0 0.0
2017-Dec-09 10:25N 47°18' W 002°07'0 0.0
2017-Dec-09 09:55N 47°18' W 002°07'0 0.0
2017-Dec-09 09:28N 47°18' W 002°07'0 0.0
2017-Dec-09 09:00N 47°18' W 002°07'0 0.7
2017-Dec-09 08:30N 47°18' W 002°07'3 6.8
2017-Dec-09 08:00N 47°16' W 002°11'4 8.4
2017-Dec-09 07:30N 47°13' W 002°16'4 9.0
2017-Dec-09 07:00N 47°09' W 002°19'510.6
2017-Dec-09 06:31N 47°05' W 002°24'612.1
2017-Dec-09 06:00N 47°02' W 002°32'  
Track history (hours):
 
Tides and Currents Weather Stations Pressure Air Temp Water Temp Dewpoint Dewpoint Depression Visibility Wind Speed Wind Dir Waves Ship Positions

Azuryth

Last reported at 2017-Dec-18 11:00 UTC. Time now 2017-Dec-18 11:20 UTC.
Position N 58°41' E 010°44'.

Length 105 m; draft 5.1 m.

Type: Ship (hazmat cat C). MMSI: 212228000.

Date/timePositionNaut miles runAvg speedWind from/ knotsBaromVisibWave heightAir tempDewpointWater temp
2017-Dec-18 11:00N 58°41' E 010°44'510.1
2017-Dec-18 10:30N 58°45' E 010°42'510.4
2017-Dec-18 10:00N 58°51' E 010°40'511.0
2017-Dec-18 09:30N 58°56' E 010°37'611.4
2017-Dec-18 09:00N 59°01' E 010°35'511.0
2017-Dec-18 08:30N 59°07' E 010°32'510.0
2017-Dec-18 08:00N 59°10' E 010°25'1 1.4
2017-Dec-18 07:28N 59°10' E 010°23'0 0.0
2017-Dec-18 06:58N 59°10' E 010°23'0 0.0
2017-Dec-18 06:28N 59°10' E 010°23'0 0.0
2017-Dec-18 05:58N 59°10' E 010°23'0 0.0
2017-Dec-18 05:28N 59°10' E 010°23'0 0.0
2017-Dec-18 04:58N 59°10' E 010°23'0 0.0
2017-Dec-18 04:28N 59°10' E 010°23'0 0.0
2017-Dec-18 03:58N 59°10' E 010°23'0 0.0
2017-Dec-18 03:25N 59°10' E 010°23'0 0.0
2017-Dec-18 02:58N 59°10' E 010°23'0 0.0
2017-Dec-18 02:28N 59°10' E 010°23'0 0.0
2017-Dec-18 01:58N 59°10' E 010°23'0 0.0
2017-Dec-18 01:28N 59°10' E 010°23'0 0.0
2017-Dec-18 00:58N 59°10' E 010°23'0 0.0
2017-Dec-18 00:28N 59°10' E 010°23'0 0.0
2017-Dec-17 23:58N 59°10' E 010°23'0 0.0
2017-Dec-17 23:28N 59°10' E 010°23'0 0.0
2017-Dec-17 22:58N 59°10' E 010°23'0 0.0
2017-Dec-17 22:28N 59°10' E 010°23'0 0.0
2017-Dec-17 21:58N 59°10' E 010°23'0 0.0
2017-Dec-17 21:28N 59°10' E 010°23'0 0.0
2017-Dec-17 20:58N 59°10' E 010°23'0 0.0
2017-Dec-17 20:28N 59°10' E 010°23'0 0.0
2017-Dec-17 19:58N 59°10' E 010°23'0 0.0
2017-Dec-17 19:28N 59°10' E 010°23'0 0.0
2017-Dec-17 18:58N 59°10' E 010°23'0 0.0
2017-Dec-17 18:28N 59°10' E 010°23'0 0.0
2017-Dec-17 17:58N 59°10' E 010°23'0 0.0
2017-Dec-17 17:28N 59°10' E 010°23'0 0.0
2017-Dec-17 16:58N 59°10' E 010°23'0 0.0
2017-Dec-17 16:28N 59°10' E 010°23'0 0.0
2017-Dec-17 15:58N 59°10' E 010°23'0 0.0
2017-Dec-17 15:28N 59°10' E 010°23'0 0.0
2017-Dec-17 14:58N 59°10' E 010°23'0 0.0
2017-Dec-17 14:28N 59°10' E 010°23'0 0.0
2017-Dec-17 13:58N 59°10' E 010°23'0 0.0
2017-Dec-17 13:28N 59°10' E 010°23'0 0.0
2017-Dec-17 12:58N 59°10' E 010°23'0 0.8
2017-Dec-17 12:30N 59°10' E 010°24'3 6.6
2017-Dec-17 12:00N 59°08' E 010°29'611.4
2017-Dec-17 11:30N 59°03' E 010°34'611.7
2017-Dec-17 11:00N 58°58' E 010°30'713.3
2017-Dec-17 10:30N 58°53' E 010°22'713.3
2017-Dec-17 10:00N 58°48' E 010°14'713.2
2017-Dec-17 09:30N 58°43' E 010°05'713.3
2017-Dec-17 09:00N 58°38' E 009°57'1713.6
2017-Dec-17 07:46N 58°25' E 009°37'1313.7
2017-Dec-17 06:47N 58°14' E 009°21'413.7
2017-Dec-17 06:30N 58°11' E 009°16'713.6
2017-Dec-17 06:00N 58°06' E 009°07'713.6
2017-Dec-17 05:30N 58°01' E 008°60'713.5
2017-Dec-17 05:00N 57°55' E 008°52'3213.4
2017-Dec-17 02:36N 57°31' E 008°13'113.1
2017-Dec-17 02:30N 57°30' E 008°11'712.7
2017-Dec-17 01:59N 57°25' E 008°03'612.8
2017-Dec-17 01:30N 57°20' E 007°55'612.5
2017-Dec-17 01:00N 57°15' E 007°48'612.6
2017-Dec-17 00:29N 57°10' E 007°41'612.6
2017-Dec-17 00:00N 57°05' E 007°37'612.4
2017-Dec-16 23:30N 56°59' E 007°32'612.2
2017-Dec-16 22:59N 56°53' E 007°28'612.0
2017-Dec-16 22:30N 56°48' E 007°22'612.1
2017-Dec-16 21:59N 56°43' E 007°17'611.1
2017-Dec-16 21:29N 56°37' E 007°13'510.7
2017-Dec-16 21:00N 56°33' E 007°09'611.0
2017-Dec-16 20:30N 56°28' E 007°05'510.8
2017-Dec-16 20:00N 56°23' E 007°01'510.3
2017-Dec-16 19:29N 56°18' E 006°57'5 9.8
2017-Dec-16 19:00N 56°14' E 006°53'5 9.7
2017-Dec-16 18:28N 56°09' E 006°49'5 9.8
2017-Dec-16 17:59N 56°05' E 006°46'5 9.9
2017-Dec-16 17:30N 56°00' E 006°42'11 9.9
2017-Dec-16 16:24N 55°50' E 006°34'148 9.9
2017-Dec-16 01:29N 53°36' E 004°50'610.9
2017-Dec-16 00:59N 53°30' E 004°47'5 9.7
2017-Dec-16 00:30N 53°26' E 004°43'510.8
2017-Dec-16 00:00N 53°21' E 004°39'611.1
2017-Dec-15 23:28N 53°16' E 004°36'610.9
2017-Dec-15 22:53N 53°10' E 004°31'411.2
2017-Dec-15 22:30N 53°06' E 004°28'611.3
2017-Dec-15 22:00N 53°01' E 004°23'611.6
2017-Dec-15 21:30N 52°56' E 004°18'611.5
2017-Dec-15 21:00N 52°51' E 004°14'611.5
2017-Dec-15 20:30N 52°46' E 004°09'611.6
2017-Dec-15 20:00N 52°41' E 004°04'611.9
2017-Dec-15 19:30N 52°37' E 003°58'611.8
2017-Dec-15 19:00N 52°31' E 003°55'611.7
2017-Dec-15 18:30N 52°25' E 003°52'611.5
2017-Dec-15 18:00N 52°20' E 003°51'611.9
2017-Dec-15 17:30N 52°14' E 003°52'612.4
2017-Dec-15 17:00N 52°08' E 003°54'611.7
2017-Dec-15 16:30N 52°02' E 003°56'4 8.8
2017-Dec-15 16:00N 51°60' E 004°02'612.1
2017-Dec-15 15:30N 51°57' E 004°11'611.5
2017-Dec-15 15:00N 51°54' E 004°18'1 1.5
2017-Dec-15 14:28N 51°53' E 004°18'0 0.0
2017-Dec-15 13:55N 51°53' E 004°18'0 0.0
2017-Dec-15 13:25N 51°53' E 004°18'0 0.0
2017-Dec-15 12:58N 51°53' E 004°18'0 0.0
2017-Dec-15 12:28N 51°53' E 004°18'0 0.0
2017-Dec-15 11:55N 51°53' E 004°18'0 0.0
2017-Dec-15 11:28N 51°53' E 004°18'0 0.0
2017-Dec-15 10:55N 51°53' E 004°18'0 0.0
2017-Dec-15 10:25N 51°53' E 004°18'0 0.0
2017-Dec-15 09:55N 51°53' E 004°18'0 0.0
2017-Dec-15 09:28N 51°53' E 004°18'0 0.0
2017-Dec-15 08:55N 51°53' E 004°18'0 0.0
2017-Dec-15 08:28N 51°53' E 004°18'0 0.0
2017-Dec-15 07:55N 51°53' E 004°18'0 0.0
2017-Dec-15 07:25N 51°53' E 004°18'0 0.0
2017-Dec-15 06:55N 51°53' E 004°18'0 0.0
2017-Dec-15 06:25N 51°53' E 004°18'0 0.0
2017-Dec-15 05:58N 51°53' E 004°18'0 0.0
2017-Dec-15 05:28N 51°53' E 004°18'0 0.0
2017-Dec-15 04:58N 51°53' E 004°18'0 0.0
2017-Dec-15 04:28N 51°53' E 004°18'0 0.0
2017-Dec-15 03:55N 51°53' E 004°18'0 0.0
2017-Dec-15 02:25N 51°53' E 004°18'0 0.0
2017-Dec-15 00:58N 51°53' E 004°18'0 0.0
2017-Dec-15 00:28N 51°53' E 004°18'0 0.0
2017-Dec-14 18:25N 51°53' E 004°18'0 0.0
2017-Dec-14 17:55N 51°53' E 004°18'0 0.0
2017-Dec-14 17:28N 51°53' E 004°18'0 0.0
2017-Dec-14 16:59N 51°53' E 004°18'1 1.7
2017-Dec-14 16:30N 51°53' E 004°19'4 8.4
2017-Dec-14 16:00N 51°51' E 004°24'10 9.6
2017-Dec-14 15:00N 51°47' E 004°38'0 0.0
2017-Dec-14 14:30N 51°47' E 004°38'0 0.0
2017-Dec-14 14:00N 51°47' E 004°38'0 0.0
2017-Dec-14 13:30N 51°47' E 004°38'0 0.0
2017-Dec-14 13:00N 51°47' E 004°38'0 0.0
2017-Dec-14 12:30N 51°47' E 004°38'0 0.0
2017-Dec-14 12:00N 51°47' E 004°38'0 0.0
2017-Dec-14 11:30N 51°47' E 004°38'0 0.0
2017-Dec-14 10:57N 51°47' E 004°38'0 0.0
2017-Dec-14 10:30N 51°47' E 004°38'0 0.0
2017-Dec-14 10:00N 51°47' E 004°38'0 0.0
2017-Dec-14 09:30N 51°47' E 004°38'0 0.0
2017-Dec-14 08:57N 51°47' E 004°38'0 0.0
2017-Dec-14 08:30N 51°47' E 004°38'0 0.0
2017-Dec-14 08:00N 51°47' E 004°38'0 0.0
2017-Dec-14 07:30N 51°47' E 004°38'0 0.0
2017-Dec-14 07:00N 51°47' E 004°38'0 0.0
2017-Dec-14 06:30N 51°47' E 004°38'0 0.0
2017-Dec-14 06:00N 51°47' E 004°38'0 0.0
2017-Dec-14 05:30N 51°47' E 004°38'0 0.0
2017-Dec-14 05:00N 51°47' E 004°38'0 0.0
2017-Dec-14 04:30N 51°47' E 004°38'0 0.0
2017-Dec-14 03:57N 51°47' E 004°38'0 0.0
2017-Dec-14 03:18N 51°47' E 004°38'0 0.0
2017-Dec-14 03:00N 51°47' E 004°38'0 0.0
2017-Dec-14 02:30N 51°47' E 004°38'0 0.0
2017-Dec-14 02:00N 51°47' E 004°38'0 0.0
2017-Dec-14 01:30N 51°47' E 004°38'0 0.0
2017-Dec-14 01:00N 51°47' E 004°38'0 0.0
2017-Dec-14 00:30N 51°47' E 004°38'0 0.0
2017-Dec-14 00:00N 51°47' E 004°38'0 0.0
2017-Dec-13 23:30N 51°47' E 004°38'0 0.0
2017-Dec-13 23:00N 51°47' E 004°38'0 0.0
2017-Dec-13 22:27N 51°47' E 004°38'0 0.0
2017-Dec-13 22:00N 51°47' E 004°38'0 0.0
2017-Dec-13 21:30N 51°47' E 004°38'0 0.0
2017-Dec-13 20:54N 51°47' E 004°38'0 0.0
2017-Dec-13 20:30N 51°47' E 004°38'0 0.0
2017-Dec-13 20:00N 51°47' E 004°38'0 0.0
2017-Dec-13 19:21N 51°47' E 004°38'0 0.0
2017-Dec-13 18:51N 51°47' E 004°38'0 0.0
2017-Dec-13 18:30N 51°47' E 004°38'0 0.0
2017-Dec-13 18:00N 51°47' E 004°38'0 0.0
2017-Dec-13 17:30N 51°47' E 004°38'0 0.0
2017-Dec-13 17:00N 51°47' E 004°38'0 0.0
2017-Dec-13 16:30N 51°47' E 004°38'0 0.0
2017-Dec-13 16:00N 51°47' E 004°38'0 0.0
2017-Dec-13 15:30N 51°47' E 004°38'0 0.0
2017-Dec-13 15:00N 51°47' E 004°38'0 0.0
2017-Dec-13 14:30N 51°47' E 004°38'0 0.0
2017-Dec-13 14:00N 51°47' E 004°38'0 0.0
2017-Dec-13 13:30N 51°47' E 004°38'0 0.0
2017-Dec-13 12:57N 51°47' E 004°38'0 0.0
2017-Dec-13 12:24N 51°47' E 004°38'0 0.0
2017-Dec-13 12:00N 51°47' E 004°38'0 0.3
2017-Dec-13 11:30N 51°47' E 004°38'1 2.3
2017-Dec-13 11:00N 51°48' E 004°37'510.2
2017-Dec-13 10:30N 51°50' E 004°29'611.6
2017-Dec-13 10:00N 51°52' E 004°20'4 8.2
2017-Dec-13 09:30N 51°55' E 004°15'611.2
2017-Dec-13 09:00N 51°58' E 004°08'611.6
2017-Dec-13 08:30N 51°60' E 003°59'714.0
2017-Dec-13 08:00N 52°01' E 003°48'612.9
2017-Dec-13 07:30N 51°60' E 003°38'54 8.8
2017-Dec-13 01:21N 51°34' E 002°21'7 6.2
2017-Dec-13 00:14N 51°29' E 002°14'2 6.9
2017-Dec-12 23:57N 51°27' E 002°12'3 7.3
2017-Dec-12 23:30N 51°25' E 002°08'4 8.9
2017-Dec-12 23:00N 51°20' E 002°07'611.0
2017-Dec-12 22:30N 51°15' E 002°05'612.2
2017-Dec-12 22:00N 51°12' E 001°57'612.9
2017-Dec-12 21:30N 51°08' E 001°48'713.5
2017-Dec-12 21:00N 51°03' E 001°41'714.3
2017-Dec-12 20:30N 50°58' E 001°33'714.4
2017-Dec-12 20:00N 50°52' E 001°27'714.3
2017-Dec-12 19:30N 50°45' E 001°23'5212.9
2017-Dec-12 15:28N 50°21' E 000°11'614.0
2017-Dec-12 15:01N 50°19' E 000°01'713.8
2017-Dec-12 14:29N 50°17' W 000°10'713.6
2017-Dec-12 14:00N 50°15' W 000°20'713.4
2017-Dec-12 13:29N 50°13' W 000°30'10411.0
2017-Dec-12 04:02N 49°45' W 003°05'9410.7
2017-Dec-11 19:15N 48°57' W 005°09'2 8.9
2017-Dec-11 19:01N 48°56' W 005°12'5 8.6
2017-Dec-11 18:29N 48°53' W 005°18'3 7.4
2017-Dec-11 18:00N 48°51' W 005°22'4 7.3
2017-Dec-11 17:30N 48°49' W 005°27'4 6.3
2017-Dec-11 16:51N 48°47' W 005°32'2 5.1
2017-Dec-11 16:31N 48°46' W 005°34'23 3.4
2017-Dec-11 09:48N 48°23' W 005°38'2 3.9
2017-Dec-11 09:17N 48°22' W 005°37'1 4.2
2017-Dec-11 09:00N 48°20' W 005°37'3 4.8
2017-Dec-11 08:22N 48°18' W 005°36'2 5.0
2017-Dec-11 07:58N 48°16' W 005°34'2 4.8
2017-Dec-11 07:27N 48°13' W 005°33'3 5.3
2017-Dec-11 06:58N 48°11' W 005°32'3 5.7
2017-Dec-11 06:29N 48°08' W 005°31'4 6.5
2017-Dec-11 05:54N 48°05' W 005°29'3 7.9
2017-Dec-11 05:30N 48°02' W 005°28'4 8.3
2017-Dec-11 05:00N 47°58' W 005°26'5 8.4
2017-Dec-11 04:26N 47°53' W 005°23'3 7.9
2017-Dec-11 04:00N 47°50' W 005°21'4 7.6
2017-Dec-11 03:30N 47°47' W 005°17'3 6.9
2017-Dec-11 03:00N 47°45' W 005°14'3 5.9
2017-Dec-11 02:30N 47°43' W 005°11'3 6.0
2017-Dec-11 02:00N 47°41' W 005°07'3 5.6
2017-Dec-11 01:30N 47°40' W 005°03'3 5.5
2017-Dec-11 01:00N 47°39' W 004°60'3 6.4
2017-Dec-11 00:30N 47°37' W 004°56'4 8.2
2017-Dec-11 00:00N 47°34' W 004°51'5 9.3
2017-Dec-10 23:28N 47°31' W 004°46'5 9.6
2017-Dec-10 23:00N 47°28' W 004°41'73 6.2
2017-Dec-10 11:13N 46°58' W 003°03'1 4.6
2017-Dec-10 10:59N 46°58' W 003°02'3 4.8
2017-Dec-10 10:24N 46°58' W 002°58'10 3.8
2017-Dec-10 07:45N 46°59' W 002°43'1 2.8
2017-Dec-10 07:14N 46°60' W 002°41'1 3.9
2017-Dec-10 06:56N 47°00' W 002°40'2 4.4
2017-Dec-10 06:26N 47°01' W 002°37'7 6.8
2017-Dec-10 05:28N 47°04' W 002°28'6 8.3
2017-Dec-10 04:44N 47°08' W 002°21'1 5.4
2017-Dec-10 04:30N 47°09' W 002°20'510.9
2017-Dec-10 04:00N 47°13' W 002°16'612.1
2017-Dec-10 03:30N 47°17' W 002°09'2 3.4
2017-Dec-10 02:58N 47°18' W 002°07'0 0.0
2017-Dec-10 02:28N 47°18' W 002°07'0 0.0
2017-Dec-10 01:58N 47°18' W 002°07'0 0.0
2017-Dec-10 01:28N 47°18' W 002°07'0 0.0
2017-Dec-10 00:58N 47°18' W 002°07'0 0.0
2017-Dec-10 00:28N 47°18' W 002°07'0 0.0
2017-Dec-09 23:58N 47°18' W 002°07'0 0.0
2017-Dec-09 23:25N 47°18' W 002°07'0 0.0
2017-Dec-09 22:58N 47°18' W 002°07'0 0.0
2017-Dec-09 22:28N 47°18' W 002°07'0 0.0
2017-Dec-09 21:58N 47°18' W 002°07'0 0.0
2017-Dec-09 21:28N 47°18' W 002°07'0 0.0
2017-Dec-09 20:58N 47°18' W 002°07'0 0.0
2017-Dec-09 20:28N 47°18' W 002°07'0 0.0
2017-Dec-09 19:55N 47°18' W 002°07'0 0.0
2017-Dec-09 19:28N 47°18' W 002°07'0 0.0
2017-Dec-09 18:58N 47°18' W 002°07'0 0.0
2017-Dec-09 18:28N 47°18' W 002°07'0 0.0
2017-Dec-09 17:58N 47°18' W 002°07'0 0.0
2017-Dec-09 17:25N 47°18' W 002°07'0 0.0
2017-Dec-09 16:58N 47°18' W 002°07'0 0.0
2017-Dec-09 16:25N 47°18' W 002°07'0 0.0
2017-Dec-09 15:58N 47°18' W 002°07'0 0.0
2017-Dec-09 15:28N 47°18' W 002°07'0 0.0
2017-Dec-09 14:58N 47°18' W 002°07'0 0.0
2017-Dec-09 14:28N 47°18' W 002°07'0 0.0
2017-Dec-09 13:58N 47°18' W 002°07'0 0.0
2017-Dec-09 13:16N 47°18' W 002°07'0 0.0
2017-Dec-09 12:58N 47°18' W 002°07'0 0.0
2017-Dec-09 12:28N 47°18' W 002°07'0 0.0
2017-Dec-09 11:58N 47°18' W 002°07'0 0.0
2017-Dec-09 11:28N 47°18' W 002°07'0 0.0
2017-Dec-09 10:58N 47°18' W 002°07'0 0.0
2017-Dec-09 10:25N 47°18' W 002°07'0 0.0
2017-Dec-09 09:55N 47°18' W 002°07'0 0.0
2017-Dec-09 09:28N 47°18' W 002°07'0 0.0
2017-Dec-09 09:00N 47°18' W 002°07'0 0.7
2017-Dec-09 08:30N 47°18' W 002°07'3 6.8
2017-Dec-09 08:00N 47°16' W 002°11'4 8.4
2017-Dec-09 07:30N 47°13' W 002°16'4 9.0
2017-Dec-09 07:00N 47°09' W 002°19'510.6
2017-Dec-09 06:31N 47°05' W 002°24'612.1
2017-Dec-09 06:00N 47°02' W 002°32'  

Dump ship's entire track history